createdAt,value
2023-05-01T00:02:27.526Z,101993.22
2023-05-01T00:04:55.576Z,101994.16
2023-05-01T00:07:24.559Z,101987.66
2023-05-01T00:09:52.498Z,101976.38
2023-05-01T00:12:21.841Z,101980.47
2023-05-01T00:14:49.758Z,101974.50
2023-05-01T00:17:18.034Z,101975.16
2023-05-01T00:19:46.002Z,101973.84
2023-05-01T00:22:13.965Z,101968.69
2023-05-01T00:24:41.866Z,101970.78
2023-05-01T00:27:09.811Z,101971.13
2023-05-01T00:29:39.067Z,101963.19
2023-05-01T00:32:07.232Z,101969.09
2023-05-01T00:34:35.328Z,101958.56
2023-05-01T00:37:03.599Z,101957.72
2023-05-01T00:39:31.512Z,101947.22
2023-05-01T00:41:59.472Z,101954.44
2023-05-01T00:44:27.332Z,101942.59
2023-05-01T00:47:00.250Z,101947.53
2023-05-01T00:49:28.266Z,101947.53
2023-05-01T00:51:56.377Z,101946.03
2023-05-01T00:54:25.300Z,101941.28
2023-05-01T00:56:53.751Z,101940.41
2023-05-01T00:59:22.363Z,101938.31
2023-05-01T01:01:50.526Z,101934.03
2023-05-01T01:04:19.817Z,101935.69
2023-05-01T01:06:54.230Z,101927.75
2023-05-01T01:09:32.319Z,101931.03
2023-05-01T01:12:07.847Z,101930.66
2023-05-01T01:14:41.969Z,101932.22
2023-05-01T01:17:18.939Z,101922.19
2023-05-01T01:20:22.991Z,101924.00
2023-05-01T01:22:59.312Z,101920.94
2023-05-01T01:25:58.318Z,101918.88
2023-05-01T01:28:41.263Z,101912.69
2023-05-01T01:31:15.647Z,101915.00
2023-05-01T01:33:57.221Z,101920.81
2023-05-01T01:36:34.858Z,101915.00
2023-05-01T01:39:10.402Z,101918.78
2023-05-01T01:41:39.990Z,101914.78
2023-05-01T01:44:11.033Z,101903.28
2023-05-01T01:46:41.265Z,101906.59
2023-05-01T01:49:14.797Z,101901.28
2023-05-01T01:51:43.345Z,101899.16
2023-05-01T01:54:13.114Z,101899.56
2023-05-01T01:56:42.164Z,101893.97
2023-05-01T01:59:11.340Z,101894.16
2023-05-01T02:01:40.816Z,101882.59
2023-05-01T02:04:10.792Z,101889.69
2023-05-01T02:06:39.519Z,101879.81
2023-05-01T02:09:07.999Z,101877.50
2023-05-01T02:11:37.825Z,101870.88
2023-05-01T02:14:06.450Z,101868.28
2023-05-01T02:16:35.357Z,101876.84
2023-05-01T02:19:04.388Z,101863.38
2023-05-01T02:21:35.400Z,101867.38
2023-05-01T02:24:04.047Z,101856.13
2023-05-01T02:26:33.183Z,101869.72
2023-05-01T02:29:01.314Z,101860.50
2023-05-01T02:31:29.233Z,101858.31
2023-05-01T02:33:57.521Z,101858.13
2023-05-01T02:36:25.589Z,101857.59
2023-05-01T02:38:55.263Z,101861.56
2023-05-01T02:41:23.696Z,101850.44
2023-05-01T02:43:56.968Z,101850.81
2023-05-01T02:48:54.513Z,101849.13
2023-05-01T02:51:22.593Z,101848.31
2023-05-01T02:53:50.885Z,101846.19
2023-05-01T02:56:20.456Z,101837.66
2023-05-01T02:58:49.444Z,101829.53
2023-05-01T03:01:17.456Z,101834.63
2023-05-01T03:03:45.448Z,101822.41
2023-05-01T03:06:14.333Z,101824.28
2023-05-01T03:08:42.359Z,101815.31
2023-05-01T03:11:10.375Z,101821.28
2023-05-01T03:13:39.759Z,101818.50
2023-05-01T03:16:08.092Z,101823.66
2023-05-01T03:18:36.019Z,101820.88
2023-05-01T03:21:03.918Z,101815.31
2023-05-01T03:23:31.884Z,101809.75
2023-05-01T03:25:59.802Z,101808.44
2023-05-01T03:28:27.772Z,101801.59
2023-05-01T03:30:57.255Z,101816.50
2023-05-01T03:33:26.248Z,101804.16
2023-05-01T03:36:01.624Z,101804.16
2023-05-01T03:38:29.524Z,101800.47
2023-05-01T03:40:57.522Z,101798.53
2023-05-01T03:43:25.901Z,101789.16
2023-05-01T03:45:53.825Z,101790.44
2023-05-01T03:48:23.386Z,101777.50
2023-05-01T03:50:51.312Z,101779.28
2023-05-01T03:53:19.438Z,101784.38
2023-05-01T03:55:47.558Z,101780.94
2023-05-01T03:58:15.449Z,101782.59
2023-05-01T04:00:43.320Z,101776.66
2023-05-01T04:03:11.332Z,101774.00
2023-05-01T04:05:40.778Z,101770.31
2023-05-01T04:08:08.975Z,101771.41
2023-05-01T04:10:37.225Z,101766.75
2023-05-01T04:13:05.150Z,101770.16
2023-05-01T04:15:33.026Z,101774.38
2023-05-01T04:18:01.650Z,101766.78
2023-05-01T04:20:29.755Z,101769.63
2023-05-01T04:22:59.031Z,101774.78
2023-05-01T04:25:27.404Z,101762.66
2023-05-01T04:27:55.326Z,101763.13
2023-05-01T04:30:23.190Z,101765.38
2023-05-01T04:32:51.156Z,101765.75
2023-05-01T04:35:19.136Z,101756.63
2023-05-01T04:37:47.283Z,101758.72
2023-05-01T04:40:16.699Z,101756.03
2023-05-01T04:42:44.728Z,101751.88
2023-05-01T04:45:13.002Z,101750.38
2023-05-01T04:47:40.926Z,101748.25
2023-05-01T04:50:09.419Z,101751.69
2023-05-01T04:52:37.572Z,101745.09
2023-05-01T04:55:06.101Z,101743.34
2023-05-01T04:57:35.386Z,101747.91
2023-05-01T05:00:03.853Z,101751.31
2023-05-01T05:02:31.846Z,101743.22
2023-05-01T05:04:59.945Z,101742.34
2023-05-01T05:07:27.852Z,101743.63
2023-05-01T05:09:56.168Z,101745.03
2023-05-01T05:12:25.092Z,101748.19
2023-05-01T05:14:54.374Z,101736.91
2023-05-01T05:17:22.309Z,101737.81
2023-05-01T05:19:50.279Z,101731.81
2023-05-01T05:22:18.182Z,101744.94
2023-05-01T05:24:47.065Z,101736.81
2023-05-01T05:27:16.035Z,101729.81
2023-05-01T05:29:44.657Z,101729.63
2023-05-01T05:32:14.055Z,101738.75
2023-05-01T05:34:42.011Z,101732.63
2023-05-01T05:37:09.896Z,101731.41
2023-05-01T05:39:38.050Z,101733.44
2023-05-01T05:42:06.079Z,101726.38
2023-05-01T05:44:36.040Z,101725.81
2023-05-01T05:47:03.966Z,101721.84
2023-05-01T05:49:33.376Z,101719.53
2023-05-01T05:52:01.291Z,101717.19
2023-05-01T05:54:29.297Z,101718.78
2023-05-01T05:56:57.246Z,101722.59
2023-05-01T05:59:25.141Z,101711.31
2023-05-01T06:01:53.058Z,101697.84
2023-05-01T06:04:20.943Z,101694.63
2023-05-01T06:06:53.563Z,101695.72
2023-05-01T06:09:33.533Z,101692.50
2023-05-01T06:12:01.946Z,101695.72
2023-05-01T06:14:37.816Z,101687.56
2023-05-01T06:17:09.696Z,101690.94
2023-05-01T06:19:38.730Z,101690.94
2023-05-01T06:22:08.064Z,101694.13
2023-05-01T06:24:36.858Z,101691.94
2023-05-01T06:27:04.867Z,101692.97
2023-05-01T06:29:32.775Z,101698.06
2023-05-01T06:32:00.742Z,101685.56
2023-05-01T06:34:28.870Z,101687.16
2023-05-01T06:36:56.754Z,101683.41
2023-05-01T06:39:26.024Z,101679.41
2023-05-01T06:41:53.920Z,101680.56
2023-05-01T06:44:22.136Z,101679.91
2023-05-01T06:46:50.327Z,101670.22
2023-05-01T06:49:18.351Z,101668.81
2023-05-01T06:51:46.249Z,101667.59
2023-05-01T06:54:14.208Z,101666.50
2023-05-01T06:56:43.565Z,101663.78
2023-05-01T06:59:11.522Z,101660.78
2023-05-01T07:01:39.520Z,101655.34
2023-05-01T07:04:07.536Z,101652.09
2023-05-01T07:06:35.633Z,101654.31
2023-05-01T07:09:04.034Z,101646.88
2023-05-01T07:11:32.265Z,101644.03
2023-05-01T07:14:01.958Z,101642.91
2023-05-01T07:16:29.936Z,101640.63
2023-05-01T07:18:57.889Z,101630.66
2023-05-01T07:21:25.921Z,101641.38
2023-05-01T07:23:53.813Z,101622.31
2023-05-01T07:26:21.828Z,101625.00
2023-05-01T07:28:49.705Z,101622.22
2023-05-01T07:31:19.035Z,101611.75
2023-05-01T07:33:47.620Z,101614.16
2023-05-01T07:36:15.540Z,101611.00
2023-05-01T07:38:43.436Z,101604.78
2023-05-01T07:41:11.316Z,101605.63
2023-05-01T07:43:39.252Z,101604.41
2023-05-01T07:46:07.244Z,101596.44
2023-05-01T07:48:38.701Z,101602.03
2023-05-01T07:51:07.095Z,101591.31
2023-05-01T07:53:35.142Z,101592.06
2023-05-01T07:56:07.035Z,101591.69
2023-05-01T07:58:34.924Z,101593.72
2023-05-01T08:01:03.322Z,101589.47
2023-05-01T08:03:31.863Z,101589.63
2023-05-01T08:06:01.300Z,101578.44
2023-05-01T08:08:29.231Z,101580.84
2023-05-01T08:10:57.327Z,101577.69
2023-05-01T08:13:25.244Z,101582.13
2023-05-01T08:15:53.565Z,101579.59
2023-05-01T08:18:21.606Z,101583.69
2023-05-01T08:20:49.832Z,101573.63
2023-05-01T08:23:19.285Z,101567.34
2023-05-01T08:25:50.853Z,101570.41
2023-05-01T08:28:20.759Z,101570.94
2023-05-01T08:30:50.384Z,101557.47
2023-05-01T08:33:18.332Z,101570.59
2023-05-01T08:35:46.242Z,101570.03
2023-05-01T08:38:14.143Z,101568.69
2023-05-01T08:40:45.480Z,101569.22
2023-05-01T08:43:14.189Z,101571.84
2023-05-01T08:45:44.112Z,101563.34
2023-05-01T08:48:13.113Z,101556.06
2023-05-01T08:50:41.550Z,101552.97
2023-05-01T08:53:10.187Z,101560.81
2023-05-01T08:55:38.821Z,101557.25
2023-05-01T08:58:09.021Z,101558.97
2023-05-01T09:00:37.117Z,101560.72
2023-05-01T09:03:05.942Z,101548.72
2023-05-01T09:05:34.611Z,101550.22
2023-05-01T09:08:02.531Z,101545.88
2023-05-01T09:10:32.950Z,101544.25
2023-05-01T09:13:02.964Z,101536.81
2023-05-01T09:15:34.109Z,101535.78
2023-05-01T09:18:03.717Z,101533.09
2023-05-01T09:20:32.757Z,101540.75
2023-05-01T09:23:00.716Z,101526.63
2023-05-01T09:25:29.308Z,101523.66
2023-05-01T09:27:57.700Z,101520.84
2023-05-01T09:30:37.623Z,101515.28
2023-05-01T09:33:09.604Z,101517.03
2023-05-01T09:35:53.498Z,101513.88
2023-05-01T09:38:22.738Z,101519.59
2023-05-01T09:40:50.928Z,101511.44
2023-05-01T09:43:27.759Z,101508.22
2023-05-01T09:46:06.678Z,101506.06
2023-05-01T09:48:36.013Z,101499.53
2023-05-01T09:51:21.890Z,101502.44
2023-05-01T09:53:50.206Z,101496.56
2023-05-01T09:56:18.529Z,101498.50
2023-05-01T09:58:46.753Z,101498.56
2023-05-01T10:01:16.415Z,101487.34
2023-05-01T10:03:45.151Z,101489.06
2023-05-01T10:06:13.453Z,101493.88
2023-05-01T10:08:48.755Z,101484.69
2023-05-01T10:11:16.996Z,101487.59
2023-05-01T10:13:45.031Z,101479.34
2023-05-01T10:16:31.851Z,101480.69
2023-05-01T10:19:02.378Z,101476.00
2023-05-01T10:21:33.148Z,101473.84
2023-05-01T10:24:03.584Z,101461.00
2023-05-01T10:26:31.482Z,101460.72
2023-05-01T10:28:59.977Z,101461.41
2023-05-01T10:31:28.926Z,101464.25
2023-05-01T10:33:58.405Z,101459.22
2023-05-01T10:36:30.008Z,101465.53
2023-05-01T10:38:59.130Z,101450.63
2023-05-01T10:42:04.921Z,101444.25
2023-05-01T10:44:34.821Z,101440.56
2023-05-01T10:47:41.586Z,101444.53
2023-05-01T10:50:12.020Z,101432.03
2023-05-01T10:53:17.666Z,101434.94
2023-05-01T10:55:46.413Z,101436.59
2023-05-01T10:58:53.964Z,101427.03
2023-05-01T11:01:36.635Z,101426.97
2023-05-01T11:04:05.667Z,101427.50
2023-05-01T11:06:35.973Z,101427.00
2023-05-01T11:09:04.900Z,101434.31
2023-05-01T11:11:56.488Z,101416.84
2023-05-01T11:14:24.999Z,101412.88
2023-05-01T11:16:52.985Z,101415.91
2023-05-01T11:19:47.621Z,101409.59
2023-05-01T11:22:17.310Z,101406.50
2023-05-01T11:24:45.387Z,101399.59
2023-05-01T11:27:16.948Z,101391.13
2023-05-01T11:29:49.736Z,101390.69
2023-05-01T11:32:23.918Z,101394.00
2023-05-01T11:34:52.866Z,101389.88
2023-05-01T11:37:22.895Z,101388.28
2023-05-01T11:39:52.635Z,101383.69
2023-05-01T11:42:22.977Z,101378.16
2023-05-01T11:45:12.186Z,101385.31
2023-05-01T11:47:40.649Z,101378.09
2023-05-01T11:50:10.722Z,101377.59
2023-05-01T11:52:49.391Z,101374.03
2023-05-01T11:55:18.066Z,101372.69
2023-05-01T11:57:50.785Z,101371.88
2023-05-01T12:00:28.325Z,101367.75
2023-05-01T12:02:58.634Z,101361.84
2023-05-01T12:05:26.898Z,101371.66
2023-05-01T12:08:11.012Z,101363.03
2023-05-01T12:10:40.086Z,101366.63
2023-05-01T12:13:09.343Z,101349.88
2023-05-01T12:15:38.647Z,101358.34
2023-05-01T12:18:07.157Z,101352.56
2023-05-01T12:20:45.206Z,101349.81
2023-05-01T12:23:16.201Z,101352.47
2023-05-01T12:25:45.191Z,101341.59
2023-05-01T12:28:15.128Z,101345.00
2023-05-01T12:30:43.754Z,101333.09
2023-05-01T12:33:12.973Z,101335.75
2023-05-01T12:35:41.492Z,101344.59
2023-05-01T12:38:15.719Z,101337.22
2023-05-01T12:40:53.241Z,101342.44
2023-05-01T12:43:21.657Z,101341.47
2023-05-01T12:45:53.263Z,101337.84
2023-05-01T12:48:21.664Z,101333.78
2023-05-01T12:50:54.502Z,101330.13
2023-05-01T12:53:25.178Z,101325.53
2023-05-01T12:55:54.755Z,101323.63
2023-05-01T12:58:22.843Z,101313.78
2023-05-01T13:00:52.389Z,101318.06
2023-05-01T13:03:25.056Z,101305.66
2023-05-01T13:05:55.127Z,101317.91
2023-05-01T13:08:34.632Z,101307.50
2023-05-01T13:11:04.021Z,101308.31
2023-05-01T13:13:34.410Z,101310.31
2023-05-01T13:16:07.477Z,101305.94
2023-05-01T13:18:35.670Z,101297.81
2023-05-01T13:21:09.181Z,101303.97
2023-05-01T13:23:39.363Z,101300.75
2023-05-01T13:26:08.452Z,101308.44
2023-05-01T13:28:38.577Z,101298.84
2023-05-01T13:31:13.334Z,101300.88
2023-05-01T13:33:42.542Z,101307.28
2023-05-01T13:36:24.453Z,101298.81
2023-05-01T13:38:57.628Z,101295.09
2023-05-01T13:41:26.655Z,101283.75
2023-05-01T13:43:56.314Z,101292.66
2023-05-01T13:46:26.374Z,101281.25
2023-05-01T13:48:54.540Z,101287.59
2023-05-01T13:51:23.898Z,101294.63
2023-05-01T13:53:54.102Z,101286.38
2023-05-01T13:56:23.605Z,101279.16
2023-05-01T13:58:51.561Z,101280.31
2023-05-01T14:01:20.689Z,101284.44
2023-05-01T14:03:49.615Z,101283.44
2023-05-01T14:06:19.226Z,101284.66
2023-05-01T14:08:48.677Z,101286.44
2023-05-01T14:11:16.984Z,101278.78
2023-05-01T14:13:47.669Z,101281.81
2023-05-01T14:16:23.775Z,101281.84
2023-05-01T14:18:54.657Z,101277.28
2023-05-01T14:21:24.293Z,101275.94
2023-05-01T14:23:53.634Z,101278.72
2023-05-01T14:26:23.878Z,101274.31
2023-05-01T14:28:53.385Z,101280.44
2023-05-01T14:31:27.339Z,101277.88
2023-05-01T14:33:57.702Z,101269.78
2023-05-01T14:36:26.563Z,101272.59
2023-05-01T14:38:57.365Z,101274.28
2023-05-01T14:41:25.700Z,101273.44
2023-05-01T14:43:55.152Z,101271.72
2023-05-01T14:46:29.873Z,101262.09
2023-05-01T14:48:58.357Z,101269.47
2023-05-01T14:51:26.419Z,101256.91
2023-05-01T14:53:54.642Z,101261.53
2023-05-01T14:56:22.990Z,101261.75
2023-05-01T14:58:51.507Z,101248.41
2023-05-01T15:01:20.827Z,101253.38
2023-05-01T15:03:48.921Z,101253.06
2023-05-01T15:06:17.326Z,101255.09
2023-05-01T15:08:45.838Z,101248.53
2023-05-01T15:11:14.461Z,101254.75
2023-05-01T15:13:42.739Z,101253.31
2023-05-01T15:16:11.000Z,101253.84
2023-05-01T15:18:40.673Z,101248.09
2023-05-01T15:21:08.570Z,101263.03
2023-05-01T15:23:37.126Z,101261.28
2023-05-01T15:26:05.124Z,101256.06
2023-05-01T15:28:33.527Z,101254.59
2023-05-01T15:31:02.228Z,101262.59
2023-05-01T15:33:30.256Z,101247.59
2023-05-01T15:35:59.585Z,101244.38
2023-05-01T15:38:28.539Z,101255.53
2023-05-01T15:40:57.279Z,101256.66
2023-05-01T15:43:25.268Z,101250.75
2023-05-01T15:45:57.708Z,101258.56
2023-05-01T15:48:26.051Z,101251.50
2023-05-01T15:50:53.962Z,101251.97
2023-05-01T15:53:23.999Z,101251.22
2023-05-01T15:55:52.240Z,101251.00
2023-05-01T15:58:20.168Z,101262.97
2023-05-01T16:00:50.059Z,101263.56
2023-05-01T16:03:18.214Z,101264.25
2023-05-01T16:05:47.058Z,101262.75
2023-05-01T16:08:15.069Z,101265.34
2023-05-01T16:10:44.443Z,101267.13
2023-05-01T16:13:12.833Z,101276.88
2023-05-01T16:15:40.791Z,101273.19
2023-05-01T16:18:09.582Z,101270.28
2023-05-01T16:20:42.650Z,101268.78
2023-05-01T16:23:10.646Z,101267.56
2023-05-01T16:25:44.784Z,101270.94
2023-05-01T16:28:13.404Z,101272.34
2023-05-01T16:30:44.495Z,101276.31
2023-05-01T16:33:18.720Z,101275.56
2023-05-01T16:35:48.412Z,101282.47
2023-05-01T16:38:16.626Z,101286.75
2023-05-01T16:40:46.999Z,101295.53
2023-05-01T16:43:15.178Z,101294.78
2023-05-01T16:45:43.217Z,101295.50
2023-05-01T16:48:11.551Z,101302.66
2023-05-01T16:50:41.556Z,101295.19
2023-05-01T16:53:09.508Z,101297.69
2023-05-01T16:55:37.421Z,101303.34
2023-05-01T16:58:06.906Z,101305.25
2023-05-01T17:00:34.838Z,101303.75
2023-05-01T17:03:02.862Z,101309.88
2023-05-01T17:05:30.880Z,101301.94
2023-05-01T17:07:58.849Z,101307.81
2023-05-01T17:10:26.796Z,101300.16
2023-05-01T17:12:54.909Z,101299.59
2023-05-01T17:15:24.365Z,101305.25
2023-05-01T17:17:52.334Z,101304.91
2023-05-01T17:20:20.251Z,101307.75
2023-05-01T17:22:48.286Z,101306.59
2023-05-01T17:25:16.401Z,101303.75
2023-05-01T17:27:44.278Z,101312.44
2023-05-01T17:30:12.729Z,101308.38
2023-05-01T17:32:43.173Z,101321.44
2023-05-01T17:35:11.463Z,101320.06
2023-05-01T17:37:39.980Z,101326.53
2023-05-01T17:40:11.073Z,101333.47
2023-05-01T17:42:39.011Z,101334.31
2023-05-01T17:45:10.027Z,101333.25
2023-05-01T17:47:41.578Z,101336.63
2023-05-01T17:50:12.932Z,101326.19
2023-05-01T17:52:40.969Z,101329.00
2023-05-01T17:55:09.828Z,101335.88
2023-05-01T17:57:38.132Z,101342.16
2023-05-01T18:00:07.285Z,101336.13
2023-05-01T18:02:35.471Z,101344.66
2023-05-01T18:05:03.684Z,101339.56
2023-05-01T18:07:33.043Z,101344.28
2023-05-01T18:10:01.326Z,101348.53
2023-05-01T18:12:29.421Z,101350.13
2023-05-01T18:14:57.411Z,101346.63
2023-05-01T18:17:25.927Z,101356.19
2023-05-01T18:19:53.886Z,101352.22
2023-05-01T18:22:21.781Z,101352.69
2023-05-01T18:24:51.095Z,101354.78
2023-05-01T18:27:19.016Z,101347.44
2023-05-01T18:29:46.945Z,101348.09
2023-05-01T18:32:14.941Z,101354.34
2023-05-01T18:34:43.190Z,101362.44
2023-05-01T18:37:13.724Z,101359.22
2023-05-01T18:39:41.758Z,101361.56
2023-05-01T18:42:10.999Z,101368.47
2023-05-01T18:44:38.937Z,101365.63
2023-05-01T18:47:07.098Z,101365.63
2023-05-01T18:49:35.231Z,101364.53
2023-05-01T18:52:03.376Z,101374.25
2023-05-01T18:54:31.511Z,101371.22
2023-05-01T18:56:59.396Z,101367.28
2023-05-01T18:59:31.039Z,101369.09
2023-05-01T19:01:59.048Z,101375.94
2023-05-01T19:04:27.034Z,101368.72
2023-05-01T19:06:54.996Z,101375.50
2023-05-01T19:09:22.977Z,101379.94
2023-05-01T19:11:50.878Z,101379.34
2023-05-01T19:14:21.390Z,101379.25
2023-05-01T19:16:50.797Z,101383.97
2023-05-01T19:19:18.744Z,101384.47
2023-05-01T19:21:46.680Z,101393.13
2023-05-01T19:24:14.578Z,101390.72
2023-05-01T19:26:42.513Z,101392.25
2023-05-01T19:29:11.256Z,101394.47
2023-05-01T19:31:39.316Z,101401.91
2023-05-01T19:34:08.652Z,101404.53
2023-05-01T19:36:36.536Z,101407.31
2023-05-01T19:39:05.428Z,101412.44
2023-05-01T19:41:33.569Z,101415.31
2023-05-01T19:44:01.565Z,101410.72
2023-05-01T19:46:32.380Z,101415.03
2023-05-01T19:49:00.338Z,101408.31
2023-05-01T19:51:29.701Z,101404.72
2023-05-01T19:53:57.604Z,101406.13
2023-05-01T19:56:25.738Z,101399.91
2023-05-01T19:58:54.372Z,101410.16
2023-05-01T20:01:22.324Z,101405.84
2023-05-01T20:03:50.290Z,101411.25
2023-05-01T20:06:18.329Z,101416.06
2023-05-01T20:08:48.411Z,101417.84
2023-05-01T20:11:16.337Z,101428.22
2023-05-01T20:13:45.475Z,101436.59
2023-05-01T20:16:13.409Z,101427.84
2023-05-01T20:18:41.361Z,101429.38
2023-05-01T20:21:09.263Z,101440.81
2023-05-01T20:23:37.203Z,101430.38
2023-05-01T20:26:06.574Z,101438.38
2023-05-01T20:28:34.512Z,101445.91
2023-05-01T20:31:02.506Z,101449.09
2023-05-01T20:33:30.430Z,101455.13
2023-05-01T20:35:58.342Z,101455.28
2023-05-01T20:38:28.087Z,101447.88
2023-05-01T20:40:56.014Z,101445.69
2023-05-01T20:43:25.292Z,101455.88
2023-05-01T20:45:53.221Z,101460.09
2023-05-01T20:48:21.602Z,101459.72
2023-05-01T20:50:49.920Z,101451.09
2023-05-01T20:53:19.021Z,101452.50
2023-05-01T20:55:46.916Z,101454.56
2023-05-01T20:58:14.803Z,101456.84
2023-05-01T21:00:44.105Z,101455.78
2023-05-01T21:03:14.516Z,101449.09
2023-05-01T21:05:42.618Z,101456.00
2023-05-01T21:08:10.591Z,101455.13
2023-05-01T21:10:38.516Z,101453.19
2023-05-01T21:13:06.518Z,101460.00
2023-05-01T21:15:34.662Z,101463.91
2023-05-01T21:18:04.068Z,101462.44
2023-05-01T21:20:33.973Z,101460.03
2023-05-01T21:23:02.506Z,101458.81
2023-05-01T21:25:32.026Z,101464.91
2023-05-01T21:28:02.137Z,101464.31
2023-05-01T21:30:33.286Z,101459.94
2023-05-01T21:33:01.552Z,101467.34
2023-05-01T21:35:31.012Z,101471.72
2023-05-01T21:37:59.066Z,101473.44
2023-05-01T21:40:27.317Z,101470.16
2023-05-01T21:42:56.387Z,101461.22
2023-05-01T21:45:24.714Z,101456.84
2023-05-01T21:47:52.862Z,101450.69
2023-05-01T21:50:21.782Z,101444.09
2023-05-01T21:52:51.221Z,101457.38
2023-05-01T21:55:20.053Z,101460.81
2023-05-01T21:57:49.866Z,101454.22
2023-05-01T22:00:19.161Z,101468.97
2023-05-01T22:02:49.210Z,101462.25
2023-05-01T22:05:18.144Z,101461.38
2023-05-01T22:07:47.022Z,101468.88
2023-05-01T22:10:17.424Z,101471.94
2023-05-01T22:12:46.099Z,101472.16
2023-05-01T22:15:15.575Z,101472.53
2023-05-01T22:17:43.945Z,101476.69
2023-05-01T22:20:12.230Z,101471.47
2023-05-01T22:22:41.337Z,101474.28
2023-05-01T22:25:10.378Z,101469.28
2023-05-01T22:27:39.831Z,101480.72
2023-05-01T22:30:08.549Z,101489.63
2023-05-01T22:32:36.607Z,101492.88
2023-05-01T22:35:05.028Z,101498.94
2023-05-01T22:37:32.908Z,101480.91
2023-05-01T22:40:01.154Z,101502.06
2023-05-01T22:42:29.269Z,101497.22
2023-05-01T22:44:58.590Z,101502.59
2023-05-01T22:47:26.589Z,101502.09
2023-05-01T22:49:54.563Z,101501.63
2023-05-01T22:52:22.543Z,101505.03
2023-05-01T22:54:52.564Z,101507.44
2023-05-01T22:57:20.479Z,101504.84
2023-05-01T22:59:48.443Z,101505.97
2023-05-01T23:02:18.947Z,101514.97
2023-05-01T23:04:47.015Z,101516.63
2023-05-01T23:07:15.238Z,101518.63
2023-05-01T23:09:43.148Z,101512.97
2023-05-01T23:12:17.844Z,101518.69
2023-05-01T23:14:47.769Z,101514.16
2023-05-01T23:17:17.481Z,101512.88
2023-05-01T23:19:47.269Z,101511.53
2023-05-01T23:22:15.402Z,101506.69
2023-05-01T23:24:48.169Z,101516.75
2023-05-01T23:27:16.873Z,101514.84
2023-05-01T23:29:49.635Z,101524.09
2023-05-01T23:32:23.218Z,101519.19
2023-05-01T23:34:51.171Z,101525.38
2023-05-01T23:37:19.111Z,101526.78
2023-05-01T23:39:47.065Z,101524.97
2023-05-01T23:42:15.051Z,101527.16
2023-05-01T23:44:42.992Z,101518.34
2023-05-01T23:47:11.144Z,101530.19
2023-05-01T23:49:40.559Z,101528.03
2023-05-01T23:52:08.641Z,101528.34
2023-05-01T23:54:36.533Z,101530.38
2023-05-01T23:57:04.555Z,101530.66
2023-05-01T23:59:32.478Z,101530.91
